Time;durP1;ratioP1;P1;durP2;ratioP2;P2;SDS_P1;SDS_P2;PMS_P1;PMS_P2;Temp;Humidity;BMP_temperature;BMP_pressure;BME280_temperature;BME280_humidity;BME280_pressure;Samples;Min_cycle;Max_cycle;Signal;HPM_P1;HPM_P2
2022/11/14 00:00:34;;;;;;;1.38;0.30;;;26.00;76.10;;;;;;5030665;28;20579;-77
2022/11/14 00:03:08;;;;;;;2.05;0.22;;;25.90;74.50;;;;;;5018802;28;20680;-77
2022/11/14 00:05:42;;;;;;;2.95;0.28;;;25.90;70.00;;;;;;5026481;28;20314;-77
2022/11/14 00:08:18;;;;;;;2.08;0.47;;;25.90;71.90;;;;;;5030521;28;20189;-77
2022/11/14 00:10:50;;;;;;;2.35;0.38;;;25.90;71.90;;;;;;5031448;28;20698;-75
2022/11/14 00:13:22;;;;;;;3.10;0.40;;;26.00;75.40;;;;;;5026742;28;20771;-76
2022/11/14 00:15:55;;;;;;;2.00;0.30;;;26.20;71.90;;;;;;5029260;28;20570;-77
2022/11/14 00:18:26;;;;;;;1.45;0.20;;;26.20;66.90;;;;;;5023816;28;20206;-77
2022/11/14 00:20:57;;;;;;;3.30;0.30;;;26.30;62.50;;;;;;5032567;28;20659;-77
2022/11/14 00:23:28;;;;;;;2.63;0.30;;;26.10;61.70;;;;;;5035454;28;20197;-77
2022/11/14 00:25:58;;;;;;;1.98;0.52;;;26.20;62.20;;;;;;5039985;28;20193;-76
2022/11/14 00:28:29;;;;;;;4.88;0.40;;;26.20;60.00;;;;;;5031048;28;20582;-77
2022/11/14 00:31:02;;;;;;;1.15;0.22;;;26.20;57.90;;;;;;5027907;28;20201;-78
2022/11/14 00:33:33;;;;;;;2.50;0.32;;;26.20;60.00;;;;;;5032589;28;20561;-78
2022/11/14 00:36:05;;;;;;;1.52;0.40;;;26.30;61.90;;;;;;5035235;28;20236;-77
2022/11/14 00:38:36;;;;;;;2.72;0.30;;;26.40;60.00;;;;;;5026613;28;20197;-78
2022/11/14 00:41:07;;;;;;;2.58;0.50;;;26.40;60.00;;;;;;5019504;28;20198;-77
2022/11/14 00:43:39;;;;;;;1.45;0.32;;;26.30;59.10;;;;;;5029794;28;20280;-76
2022/11/14 00:46:11;;;;;;;0.88;0.40;;;26.30;61.10;;;;;;5027952;28;20741;-78
2022/11/14 00:48:42;;;;;;;1.17;0.30;;;26.40;61.60;;;;;;5024721;28;20624;-78
2022/11/14 00:51:13;;;;;;;0.35;0.20;;;26.40;62.10;;;;;;5029691;28;20197;-78
2022/11/14 00:53:44;;;;;;;1.25;0.43;;;26.40;62.10;;;;;;5027202;28;20225;-78
2022/11/14 00:56:15;;;;;;;1.38;0.30;;;26.50;61.60;;;;;;5023416;28;20644;-78
2022/11/14 00:58:46;;;;;;;1.08;0.30;;;26.60;60.10;;;;;;5024367;28;20697;-77
2022/11/14 01:01:18;;;;;;;1.25;0.38;;;26.70;62.40;;;;;;5013557;28;20200;-77
2022/11/14 01:04:00;;;;;;;1.65;0.30;;;26.70;59.40;;;;;;5028956;28;20196;-77
2022/11/14 01:06:32;;;;;;;1.10;0.30;;;26.70;58.40;;;;;;5036944;28;20842;-77
2022/11/14 01:09:03;;;;;;;0.85;0.20;;;26.70;61.40;;;;;;5026869;28;20189;-77
2022/11/14 01:11:34;;;;;;;1.13;0.22;;;26.90;64.60;;;;;;5026446;28;20646;-77
2022/11/14 01:14:07;;;;;;;2.00;0.30;;;26.90;61.60;;;;;;5024545;28;20221;-75
2022/11/14 01:16:40;;;;;;;1.83;0.35;;;27.00;62.80;;;;;;5038213;28;20221;-76
2022/11/14 01:19:11;;;;;;;2.50;0.32;;;27.20;62.40;;;;;;5022722;28;20221;-78
2022/11/14 01:21:42;;;;;;;1.98;0.47;;;27.20;59.80;;;;;;5028701;28;20205;-78
2022/11/14 01:24:13;;;;;;;2.53;0.47;;;27.10;60.80;;;;;;5028168;28;20207;-78
2022/11/14 01:26:44;;;;;;;1.38;0.35;;;27.20;59.90;;;;;;5026512;28;20244;-78
2022/11/14 01:29:16;;;;;;;2.53;0.40;;;27.30;60.10;;;;;;5025882;28;20229;-79
2022/11/14 01:31:48;;;;;;;3.80;0.60;;;27.40;58.30;;;;;;5028907;28;20228;-80
2022/11/14 01:34:20;;;;;;;0.60;0.32;;;27.50;59.40;;;;;;5027795;28;20241;-77
2022/11/14 01:36:50;;;;;;;0.75;0.50;;;27.50;58.30;;;;;;5025525;28;20282;-79
2022/11/14 01:39:21;;;;;;;0.55;0.40;;;27.60;56.20;;;;;;5030246;28;20566;-78
2022/11/14 01:41:52;;;;;;;0.93;0.40;;;27.70;58.90;;;;;;5020869;28;20197;-77
2022/11/14 01:44:43;;;;;;;1.50;0.30;;;27.80;56.30;;;;;;5026138;28;20580;-77
2022/11/14 01:47:20;;;;;;;0.45;0.22;;;27.90;58.10;;;;;;5030221;28;20188;-78
2022/11/14 01:49:55;;;;;;;0.43;0.30;;;27.90;54.80;;;;;;5036519;28;20582;-77
2022/11/14 01:52:30;;;;;;;1.55;0.25;;;27.70;54.30;;;;;;5029190;28;20204;-78
2022/11/14 01:55:04;;;;;;;0.40;0.32;;;27.60;55.20;;;;;;5028264;28;20275;-79
2022/11/14 01:57:38;;;;;;;0.98;0.30;;;27.70;56.10;;;;;;5035737;28;20204;-77
2022/11/14 02:00:12;;;;;;;1.38;0.43;;;27.90;56.30;;;;;;5027210;28;20255;-78
2022/11/14 02:02:44;;;;;;;0.60;0.30;;;28.00;57.20;;;;;;5020152;28;20235;-78
2022/11/14 02:05:19;;;;;;;1.85;0.20;;;28.10;56.90;;;;;;5026824;28;20193;-78
2022/11/14 02:07:50;;;;;;;4.07;0.28;;;28.10;54.50;;;;;;5019187;28;20197;-79
2022/11/14 02:10:21;;;;;;;0.25;0.20;;;28.10;54.00;;;;;;5029777;28;20239;-78
2022/11/14 02:12:53;;;;;;;0.98;0.40;;;28.00;55.60;;;;;;5028516;28;20235;-77
2022/11/14 02:15:25;;;;;;;0.35;0.30;;;27.90;54.30;;;;;;5025238;28;20197;-78
2022/11/14 02:17:58;;;;;;;1.77;0.40;;;27.90;53.50;;;;;;5020211;28;20217;-77
2022/11/14 02:20:35;;;;;;;1.80;0.57;;;28.00;53.40;;;;;;5030049;28;20200;-76
2022/11/14 02:23:06;;;;;;;0.73;0.30;;;28.10;53.20;;;;;;5028641;28;20411;-76
2022/11/14 02:25:37;;;;;;;1.23;0.30;;;28.30;52.90;;;;;;5022134;28;20194;-77
2022/11/14 02:28:09;;;;;;;2.42;0.30;;;28.30;53.40;;;;;;5028852;28;20701;-77
2022/11/14 02:30:39;;;;;;;0.75;0.20;;;28.30;51.20;;;;;;5032219;28;20610;-77
2022/11/14 02:33:11;;;;;;;1.42;0.30;;;28.10;52.90;;;;;;5032440;28;20193;-77
2022/11/14 02:35:43;;;;;;;2.55;0.20;;;28.00;52.20;;;;;;5033293;28;20266;-78
2022/11/14 02:38:14;;;;;;;1.50;0.30;;;27.80;53.60;;;;;;5029670;28;20202;-77
2022/11/14 02:40:45;;;;;;;0.50;0.28;;;27.90;53.30;;;;;;5028009;28;20300;-76
2022/11/14 02:43:16;;;;;;;0.65;0.32;;;27.90;51.70;;;;;;5029659;28;20197;-77
2022/11/14 02:45:47;;;;;;;1.55;0.20;;;27.80;52.80;;;;;;5025093;28;20228;-77
2022/11/14 02:48:18;;;;;;;0.50;0.20;;;27.80;54.30;;;;;;5015578;28;20201;-78
2022/11/14 02:50:51;;;;;;;3.20;0.40;;;28.00;52.20;;;;;;5032128;28;20217;-78
2022/11/14 02:53:22;;;;;;;0.93;0.35;;;27.80;51.60;;;;;;5032300;28;20574;-77
2022/11/14 02:55:53;;;;;;;5.63;0.50;;;27.70;50.80;;;;;;5030099;28;20217;-76
2022/11/14 02:58:23;;;;;;;1.73;0.30;;;27.70;51.20;;;;;;5034895;28;20297;-76
2022/11/14 03:00:55;;;;;;;3.25;0.30;;;27.90;52.30;;;;;;5031593;28;20211;-77
2022/11/14 03:03:25;;;;;;;0.95;0.28;;;28.00;51.30;;;;;;5031311;28;20651;-77
2022/11/14 03:06:02;;;;;;;0.73;0.32;;;28.00;51.50;;;;;;5012798;28;20236;-77
2022/11/14 03:08:32;;;;;;;0.63;0.30;;;28.30;52.00;;;;;;5025033;28;20201;-77
2022/11/14 03:11:07;;;;;;;1.13;0.20;;;28.30;51.70;;;;;;5028795;28;20225;-77
2022/11/14 03:13:39;;;;;;;0.82;0.30;;;28.50;52.40;;;;;;5034552;28;20207;-77
2022/11/14 03:16:10;;;;;;;0.98;0.43;;;28.40;49.40;;;;;;5031378;28;20206;-78
2022/11/14 03:18:42;;;;;;;2.55;0.38;;;28.40;49.90;;;;;;5031608;28;20599;-77
2022/11/14 03:21:17;;;;;;;4.68;0.55;;;28.50;49.70;;;;;;5030885;28;20205;-77
2022/11/14 03:23:48;;;;;;;1.05;0.40;;;28.60;50.30;;;;;;5033399;28;20224;-72
2022/11/14 03:26:19;;;;;;;2.05;0.30;;;28.50;52.40;;;;;;5032725;28;20193;-75
2022/11/14 03:28:51;;;;;;;2.55;1.33;;;28.60;52.60;;;;;;5031463;28;20193;-78
2022/11/14 03:31:22;;;;;;;1.08;0.32;;;28.50;51.70;;;;;;5025862;28;20238;-77
2022/11/14 03:33:54;;;;;;;1.95;0.22;;;28.40;52.10;;;;;;5039596;28;20668;-77
2022/11/14 03:36:28;;;;;;;2.42;0.50;;;28.40;53.10;;;;;;5037401;28;20287;-78
2022/11/14 03:38:59;;;;;;;1.85;0.43;;;28.30;52.70;;;;;;5034453;28;20190;-78
2022/11/14 03:41:30;;;;;;;0.95;0.40;;;28.10;53.50;;;;;;5032827;28;20260;-78
2022/11/14 03:44:01;;;;;;;4.72;0.22;;;28.50;52.50;;;;;;5017351;28;20244;-77
2022/11/14 03:46:35;;;;;;;2.28;0.30;;;28.50;52.30;;;;;;5017715;28;20579;-78
2022/11/14 03:49:05;;;;;;;5.38;0.40;;;28.50;52.70;;;;;;5013222;28;20193;-77
2022/11/14 03:51:39;;;;;;;1.67;0.20;;;28.70;52.80;;;;;;5009918;28;20225;-77
2022/11/14 03:54:09;;;;;;;1.45;0.40;;;28.40;52.60;;;;;;5024910;28;20197;-78
2022/11/14 03:56:40;;;;;;;1.02;0.40;;;28.40;53.60;;;;;;5025089;28;20204;-78
2022/11/14 03:59:12;;;;;;;1.88;0.35;;;28.50;53.80;;;;;;5032149;28;20566;-77
2022/11/14 04:01:43;;;;;;;1.17;0.40;;;28.70;54.10;;;;;;5033067;28;20255;-78
2022/11/14 04:04:15;;;;;;;4.57;0.40;;;28.90;53.70;;;;;;5034867;28;20205;-76
2022/11/14 04:06:48;;;;;;;1.27;0.22;;;29.00;53.00;;;;;;5041341;28;20196;-79
2022/11/14 04:09:19;;;;;;;1.35;0.32;;;29.00;52.40;;;;;;5035326;28;20201;-77
2022/11/14 04:11:49;;;;;;;1.85;0.32;;;28.70;53.80;;;;;;5031115;28;20233;-75
2022/11/14 04:14:20;;;;;;;0.22;0.22;;;29.00;52.90;;;;;;5035340;28;20197;-78
2022/11/14 04:16:51;;;;;;;1.48;0.20;;;29.00;51.30;;;;;;5034833;28;20216;-77
2022/11/14 04:19:23;;;;;;;4.90;0.40;;;28.80;51.50;;;;;;5034086;28;20316;-78
2022/11/14 04:21:57;;;;;;;1.63;0.38;;;28.80;51.20;;;;;;5031582;28;20198;-78
2022/11/14 04:24:28;;;;;;;1.55;0.20;;;28.90;51.70;;;;;;5024902;28;20252;-77
2022/11/14 04:27:01;;;;;;;1.80;0.30;;;29.00;52.30;;;;;;5033352;28;20216;-76
2022/11/14 04:29:32;;;;;;;0.50;0.30;;;29.40;51.00;;;;;;5038331;28;20713;-77
2022/11/14 04:32:03;;;;;;;2.70;0.45;;;29.50;52.50;;;;;;5029108;28;20231;-77
2022/11/14 04:34:34;;;;;;;1.27;0.32;;;29.30;50.40;;;;;;5035692;28;20201;-77
2022/11/14 04:37:14;;;;;;;0.57;0.22;;;29.40;50.60;;;;;;5033275;28;20197;-78
2022/11/14 04:39:45;;;;;;;3.28;0.50;;;29.50;51.70;;;;;;5037330;28;20678;-77
2022/11/14 04:42:16;;;;;;;2.25;0.30;;;29.20;51.60;;;;;;5034171;28;20710;-78
2022/11/14 04:44:46;;;;;;;0.75;0.20;;;28.90;51.60;;;;;;5030069;28;20204;-77
2022/11/14 04:47:18;;;;;;;1.95;0.50;;;28.60;52.40;;;;;;5029523;28;20185;-77
2022/11/14 04:49:50;;;;;;;0.77;0.30;;;29.00;52.00;;;;;;5031228;28;20197;-78
2022/11/14 04:52:23;;;;;;;0.43;0.20;;;29.40;51.80;;;;;;5029312;28;20201;-76
2022/11/14 04:54:54;;;;;;;2.28;0.20;;;29.70;48.90;;;;;;5022448;28;20205;-78
2022/11/14 04:57:26;;;;;;;0.45;0.13;;;29.70;47.20;;;;;;5030362;28;20193;-77
2022/11/14 04:59:57;;;;;;;1.45;0.20;;;29.80;47.10;;;;;;5027703;28;22241;-77
2022/11/14 05:02:28;;;;;;;2.20;0.30;;;29.80;46.50;;;;;;5021718;28;20205;-77
2022/11/14 05:04:59;;;;;;;0.68;0.20;;;29.40;47.50;;;;;;5016902;28;20285;-77
2022/11/14 05:07:32;;;;;;;1.88;0.43;;;29.30;48.60;;;;;;5023994;28;20197;-76
2022/11/14 05:10:03;;;;;;;2.13;0.30;;;29.20;47.70;;;;;;5029575;28;20205;-76
2022/11/14 05:12:34;;;;;;;4.03;0.28;;;28.80;50.00;;;;;;5029691;28;20237;-77
2022/11/14 05:15:05;;;;;;;0.60;0.32;;;28.40;50.20;;;;;;5029196;28;20201;-77
2022/11/14 05:17:36;;;;;;;1.38;0.22;;;28.00;51.40;;;;;;5031441;28;20652;-77
2022/11/14 05:20:07;;;;;;;1.48;0.30;;;27.80;52.30;;;;;;5026987;28;20660;-77
2022/11/14 05:22:40;;;;;;;0.38;0.20;;;27.70;51.20;;;;;;5022007;28;20251;-77
2022/11/14 05:25:12;;;;;;;2.15;0.45;;;27.50;51.80;;;;;;5027368;28;20194;-78
2022/11/14 05:27:43;;;;;;;2.03;0.40;;;27.40;52.30;;;;;;5030177;28;20205;-77
2022/11/14 05:30:15;;;;;;;2.78;0.60;;;27.40;52.00;;;;;;5030000;28;20796;-77
2022/11/14 05:32:46;;;;;;;0.45;0.20;;;27.40;53.50;;;;;;5034912;28;20570;-78
2022/11/14 05:35:17;;;;;;;0.15;0.10;;;27.30;53.90;;;;;;5017530;28;20193;-77
2022/11/14 05:37:50;;;;;;;0.70;0.30;;;27.30;53.50;;;;;;5027798;28;20200;-77
2022/11/14 05:40:20;;;;;;;0.45;0.25;;;27.20;54.00;;;;;;5029257;28;20199;-77
2022/11/14 05:42:51;;;;;;;2.28;0.30;;;27.10;53.00;;;;;;5029495;28;20193;-77
2022/11/14 05:45:22;;;;;;;1.35;0.30;;;27.00;52.60;;;;;;5030060;28;20203;-76
2022/11/14 05:47:55;;;;;;;2.17;0.30;;;27.00;53.40;;;;;;5028758;28;20272;-77
2022/11/14 05:50:26;;;;;;;0.73;0.50;;;27.00;53.10;;;;;;5027701;28;20197;-77
2022/11/14 05:52:59;;;;;;;1.20;0.50;;;27.30;52.70;;;;;;5029141;28;20284;-76
2022/11/14 05:55:30;;;;;;;3.10;0.40;;;27.60;52.20;;;;;;5018859;28;20243;-77
2022/11/14 05:58:01;;;;;;;5.72;0.52;;;27.70;52.10;;;;;;5029357;28;20204;-77
2022/11/14 06:00:32;;;;;;;1.98;0.20;;;27.60;51.20;;;;;;5029578;28;20197;-77
2022/11/14 06:03:03;;;;;;;0.90;0.30;;;27.40;51.70;;;;;;5033594;28;20639;-77
2022/11/14 06:05:36;;;;;;;1.50;0.30;;;27.20;50.70;;;;;;5032978;28;20209;-77
2022/11/14 06:08:09;;;;;;;3.35;0.17;;;27.10;51.90;;;;;;5034455;28;20316;-77
2022/11/14 06:10:39;;;;;;;2.55;0.20;;;27.10;53.20;;;;;;5033838;28;20224;-78
2022/11/14 06:13:10;;;;;;;2.65;0.30;;;27.20;51.30;;;;;;5039895;28;20658;-77
2022/11/14 06:15:41;;;;;;;1.58;0.30;;;27.70;50.80;;;;;;5043859;28;20193;-77
2022/11/14 06:18:12;;;;;;;1.90;0.30;;;27.70;51.10;;;;;;5046405;28;20193;-77
2022/11/14 06:20:43;;;;;;;1.55;0.40;;;28.00;51.90;;;;;;5042456;28;20223;-77
2022/11/14 06:23:17;;;;;;;0.80;0.30;;;27.80;51.30;;;;;;5034311;28;20217;-78
2022/11/14 06:25:47;;;;;;;3.33;0.30;;;27.50;50.90;;;;;;5030467;28;20252;-77
2022/11/14 06:28:18;;;;;;;2.40;0.35;;;27.30;50.80;;;;;;5032851;28;20193;-76
2022/11/14 06:30:49;;;;;;;1.52;0.20;;;27.40;50.30;;;;;;5033907;28;20217;-77
2022/11/14 06:33:20;;;;;;;0.22;0.17;;;27.30;50.40;;;;;;5034376;28;20208;-77
2022/11/14 06:35:50;;;;;;;2.40;0.43;;;28.00;48.00;;;;;;5030847;28;20223;-76
2022/11/14 06:38:24;;;;;;;3.13;0.40;;;28.90;47.30;;;;;;5035013;28;20197;-77
2022/11/14 06:40:54;;;;;;;0.73;0.40;;;30.00;46.70;;;;;;5031869;28;20201;-77
2022/11/14 06:43:26;;;;;;;1.23;0.35;;;29.90;51.00;;;;;;5027683;28;20221;-78
2022/11/14 06:45:57;;;;;;;3.45;0.57;;;30.20;51.50;;;;;;5032516;28;20279;-78
2022/11/14 06:48:28;;;;;;;1.52;0.60;;;30.60;50.80;;;;;;5030921;28;20578;-78
2022/11/14 06:50:59;;;;;;;2.17;0.35;;;31.10;50.20;;;;;;5029065;28;20213;-78
2022/11/14 06:53:34;;;;;;;0.70;0.30;;;31.50;49.70;;;;;;5031168;28;20201;-77
2022/11/14 06:56:07;;;;;;;1.85;0.40;;;31.80;49.40;;;;;;5037671;28;20549;-78
2022/11/14 06:58:40;;;;;;;0.20;0.10;;;31.70;42.40;;;;;;5032195;28;20225;-77
2022/11/14 07:01:14;;;;;;;0.40;0.22;;;31.50;41.10;;;;;;5032372;28;20205;-79
2022/11/14 07:03:46;;;;;;;1.38;0.22;;;31.80;41.70;;;;;;5032246;28;20237;-77
2022/11/14 07:06:19;;;;;;;0.30;0.30;;;32.40;39.80;;;;;;5042943;28;20201;-78
2022/11/14 07:08:53;;;;;;;1.13;0.57;;;32.50;38.80;;;;;;5031200;28;20194;-77
2022/11/14 07:11:26;;;;;;;1.92;1.15;;;32.30;38.20;;;;;;5030843;28;20237;-77
2022/11/14 07:13:58;;;;;;;0.68;0.38;;;32.20;39.10;;;;;;5025484;28;20222;-76
2022/11/14 07:16:30;;;;;;;0.45;0.28;;;31.60;39.10;;;;;;5009442;28;20238;-77
2022/11/14 07:19:02;;;;;;;0.22;0.22;;;31.40;40.50;;;;;;5006084;28;20201;-75
2022/11/14 07:21:36;;;;;;;0.70;0.20;;;31.70;40.80;;;;;;5010670;28;20244;-77
2022/11/14 07:24:09;;;;;;;0.52;0.20;;;32.40;39.10;;;;;;5006495;28;20212;-77
2022/11/14 07:26:40;;;;;;;0.77;0.40;;;32.00;39.90;;;;;;5002490;28;20244;-77
2022/11/14 07:29:12;;;;;;;0.32;0.30;;;31.80;40.20;;;;;;5000459;28;20253;-76
2022/11/14 07:31:44;;;;;;;0.60;0.40;;;31.30;40.40;;;;;;5003706;28;20229;-78
2022/11/14 07:34:15;;;;;;;0.93;0.30;;;31.00;41.50;;;;;;5009915;28;20217;-77
2022/11/14 07:36:47;;;;;;;2.03;0.80;;;30.50;42.60;;;;;;5008647;28;20717;-79
2022/11/14 07:39:20;;;;;;;4.38;1.40;;;30.00;42.90;;;;;;5010953;28;20194;-76
2022/11/14 07:41:52;;;;;;;1.10;0.60;;;29.80;43.90;;;;;;5009088;28;20308;-78
2022/11/14 07:44:23;;;;;;;1.65;0.60;;;29.40;44.30;;;;;;5001292;28;22646;-78
2022/11/14 07:46:54;;;;;;;4.97;1.85;;;29.10;45.80;;;;;;5004948;28;20265;-78
2022/11/14 07:49:26;;;;;;;4.45;1.15;;;28.80;46.00;;;;;;5010288;28;20984;-77
2022/11/14 07:51:56;;;;;;;1.00;0.47;;;28.20;46.90;;;;;;5006351;28;20225;-77
2022/11/14 07:54:30;;;;;;;0.93;0.60;;;27.90;48.20;;;;;;5009524;28;20225;-77
2022/11/14 07:57:01;;;;;;;2.80;1.67;;;27.60;48.80;;;;;;5003655;28;20221;-77
2022/11/14 07:59:32;;;;;;;4.57;2.25;;;27.30;49.70;;;;;;5003616;28;20253;-80
2022/11/14 08:02:03;;;;;;;12.68;6.75;;;27.00;50.30;;;;;;5008729;28;20515;-79
2022/11/14 08:04:34;;;;;;;2.05;1.00;;;26.80;51.20;;;;;;5006183;28;20759;-77
2022/11/14 08:07:05;;;;;;;1.60;0.63;;;26.70;51.60;;;;;;5007449;28;20225;-77
2022/11/14 08:09:38;;;;;;;0.98;0.70;;;26.60;52.50;;;;;;5002900;28;20198;-76
2022/11/14 08:12:09;;;;;;;2.00;0.90;;;26.50;52.90;;;;;;5003781;28;20244;-78
2022/11/14 08:14:41;;;;;;;1.90;0.82;;;26.40;53.50;;;;;;5002355;28;20886;-76
2022/11/14 08:17:12;;;;;;;3.38;1.20;;;26.40;54.70;;;;;;5006132;28;20734;-77
2022/11/14 08:19:43;;;;;;;1.35;0.80;;;26.20;53.50;;;;;;5006097;28;20953;-77
2022/11/14 08:22:15;;;;;;;7.20;0.90;;;26.20;55.10;;;;;;5008463;28;21113;-77
2022/11/14 08:24:48;;;;;;;1.67;0.85;;;26.10;55.50;;;;;;5005345;28;20198;-77
2022/11/14 08:27:19;;;;;;;1.10;0.70;;;25.90;55.70;;;;;;5014010;28;20193;-77
2022/11/14 08:29:50;;;;;;;1.02;0.70;;;25.70;56.00;;;;;;5006347;28;20302;-77
2022/11/14 08:32:22;;;;;;;2.08;0.80;;;25.60;55.30;;;;;;5002319;28;20279;-74
2022/11/14 08:34:53;;;;;;;2.78;0.45;;;25.50;56.50;;;;;;5010193;28;20205;-78
2022/11/14 08:37:25;;;;;;;1.00;0.57;;;25.40;57.50;;;;;;5004457;28;20202;-77
2022/11/14 08:39:58;;;;;;;2.05;0.40;;;25.30;57.50;;;;;;5009874;28;20225;-77
2022/11/14 08:42:29;;;;;;;1.05;0.50;;;25.20;57.20;;;;;;5018659;28;20355;-76
2022/11/14 08:45:03;;;;;;;4.25;0.40;;;25.20;57.20;;;;;;5015539;28;20201;-77
2022/11/14 08:47:35;;;;;;;4.22;1.70;;;25.10;57.30;;;;;;5009317;28;20300;-77
2022/11/14 08:50:06;;;;;;;2.05;0.60;;;25.00;58.40;;;;;;5004690;28;21108;-77
2022/11/14 08:52:39;;;;;;;0.98;0.68;;;24.90;59.40;;;;;;5003687;28;20224;-77
2022/11/14 08:55:12;;;;;;;1.30;0.70;;;24.90;59.80;;;;;;5007766;28;20208;-77
2022/11/14 08:57:44;;;;;;;3.67;1.15;;;24.90;60.70;;;;;;5006267;28;20204;-78
2022/11/14 09:00:16;;;;;;;1.00;0.40;;;24.90;61.10;;;;;;5008414;28;20216;-77
2022/11/14 09:02:49;;;;;;;1.17;0.50;;;24.60;59.90;;;;;;5024155;28;20201;-79
2022/11/14 09:05:21;;;;;;;1.85;0.60;;;24.60;60.80;;;;;;5029576;28;20256;-78
2022/11/14 09:07:55;;;;;;;2.10;0.60;;;24.50;59.10;;;;;;5018398;28;20198;-78
2022/11/14 09:10:29;;;;;;;1.30;0.60;;;24.50;58.40;;;;;;5018894;28;20228;-77
2022/11/14 09:13:01;;;;;;;0.45;0.40;;;24.50;58.80;;;;;;4998659;28;20231;-77
2022/11/14 09:15:32;;;;;;;0.60;0.35;;;24.40;58.10;;;;;;5015768;28;20630;-78
2022/11/14 09:18:03;;;;;;;2.17;0.90;;;24.50;58.50;;;;;;5020180;28;20300;-80
2022/11/14 09:20:34;;;;;;;3.25;1.30;;;24.50;59.40;;;;;;5023210;28;20284;-79
2022/11/14 09:25:55;;;;;;;2.17;0.40;;;24.40;57.90;;;;;;5029872;28;20212;-81
2022/11/14 09:28:27;;;;;;;0.68;0.40;;;24.40;58.20;;;;;;5026701;28;20205;-79
2022/11/14 09:31:28;;;;;;;0.93;0.47;;;24.40;57.90;;;;;;5022740;28;20230;-79
2022/11/14 09:34:00;;;;;;;6.80;2.88;;;24.30;58.20;;;;;;5015932;28;22654;-80
2022/11/14 09:36:31;;;;;;;0.85;0.60;;;24.20;58.60;;;;;;5009788;28;20743;-80
2022/11/14 09:39:02;;;;;;;0.40;0.30;;;24.30;58.90;;;;;;5014038;28;20208;-80
2022/11/14 09:41:54;;;;;;;2.80;0.60;;;24.30;58.60;;;;;;5014725;28;20207;-80
2022/11/14 09:44:51;;;;;;;0.73;0.60;;;24.30;58.70;;;;;;5021271;28;20205;-79
2022/11/14 09:47:29;;;;;;;0.90;0.75;;;24.30;59.30;;;;;;5023870;28;20198;-79
2022/11/14 09:50:10;;;;;;;0.77;0.57;;;24.20;59.40;;;;;;5011024;28;20201;-79
2022/11/14 09:52:46;;;;;;;1.67;0.90;;;24.30;61.50;;;;;;5012474;28;20247;-79
2022/11/14 09:55:21;;;;;;;1.27;0.75;;;24.30;64.00;;;;;;5012685;28;20764;-80
2022/11/14 09:57:55;;;;;;;1.60;0.90;;;24.30;63.20;;;;;;5012725;28;20201;-80
2022/11/14 10:00:28;;;;;;;0.93;0.50;;;24.30;63.10;;;;;;5012282;28;20205;-78
2022/11/14 10:03:09;;;;;;;2.70;0.80;;;24.30;64.20;;;;;;5011144;28;20255;-79
2022/11/14 10:06:01;;;;;;;1.60;0.60;;;24.10;64.60;;;;;;5014928;28;20284;-79
2022/11/14 10:08:58;;;;;;;1.13;0.60;;;24.10;65.30;;;;;;5014770;28;20201;-81
2022/11/14 10:11:37;;;;;;;0.60;0.55;;;23.90;66.20;;;;;;5011189;28;20323;-80
2022/11/14 10:14:48;;;;;;;0.75;0.43;;;23.90;68.70;;;;;;5010725;28;20201;-79
2022/11/14 10:17:43;;;;;;;0.88;0.63;;;23.80;68.70;;;;;;4969290;28;20209;-79
2022/11/14 10:20:22;;;;;;;0.63;0.50;;;23.70;71.60;;;;;;5016694;28;20206;-78
2022/11/14 10:23:14;;;;;;;1.65;0.60;;;23.70;72.10;;;;;;4995096;28;20280;-79
2022/11/14 10:25:54;;;;;;;0.93;0.55;;;23.70;75.20;;;;;;5012657;28;20206;-79
2022/11/14 10:28:44;;;;;;;0.50;0.50;;;23.70;77.00;;;;;;5009280;28;20205;-79
2022/11/14 10:31:28;;;;;;;0.52;0.40;;;23.70;78.50;;;;;;5012858;28;20210;-79
2022/11/14 10:34:09;;;;;;;0.30;0.30;;;23.70;74.80;;;;;;5007941;28;20298;-78
2022/11/14 10:36:51;;;;;;;1.35;0.38;;;23.60;76.40;;;;;;5011035;28;20224;-78
2022/11/14 10:39:28;;;;;;;1.65;0.90;;;23.60;77.80;;;;;;5007275;28;20233;-80
2022/11/14 10:42:12;;;;;;;0.70;0.40;;;23.60;80.40;;;;;;5011975;28;20197;-79
2022/11/14 10:44:53;;;;;;;2.53;0.50;;;23.60;79.40;;;;;;5015690;28;20225;-79
2022/11/14 10:47:25;;;;;;;0.70;0.47;;;23.60;79.90;;;;;;5012592;28;20208;-78
2022/11/14 10:50:05;;;;;;;1.17;0.70;;;23.50;81.40;;;;;;5029031;28;20228;-79
2022/11/14 10:52:47;;;;;;;1.75;0.65;;;23.40;83.30;;;;;;5017552;28;20237;-78
2022/11/14 10:55:20;;;;;;;2.85;0.57;;;23.40;85.70;;;;;;5006431;28;20205;-78
2022/11/14 10:57:51;;;;;;;1.30;0.40;;;23.40;89.70;;;;;;5011030;28;20292;-78
2022/11/14 11:00:24;;;;;;;2.88;0.40;;;23.40;90.40;;;;;;5009364;28;20215;-78
2022/11/14 11:02:56;;;;;;;0.40;0.40;;;23.40;90.70;;;;;;5019191;28;20205;-78
2022/11/14 11:05:46;;;;;;;0.30;0.30;;;23.30;90.20;;;;;;5030159;28;20257;-80
2022/11/14 11:11:38;;;;;;;0.40;0.30;;;23.30;93.50;;;;;;5042747;28;20220;-79
2022/11/14 11:14:19;;;;;;;0.63;0.35;;;23.20;93.00;;;;;;5022493;28;20206;-79
2022/11/14 11:16:50;;;;;;;0.63;0.40;;;23.10;93.40;;;;;;5013249;28;20226;-78
2022/11/14 11:19:31;;;;;;;19.13;1.83;;;23.10;95.40;;;;;;5017533;28;20198;-79
2022/11/14 11:22:32;;;;;;;1.13;0.70;;;23.20;97.00;;;;;;5015086;28;20194;-80
2022/11/14 11:25:03;;;;;;;0.88;0.60;;;23.10;98.10;;;;;;5006305;28;20676;-80
2022/11/14 11:27:39;;;;;;;0.60;0.40;;;23.10;99.20;;;;;;5024870;28;20312;-79
2022/11/14 11:30:24;;;;;;;0.75;0.50;;;23.10;99.90;;;;;;5001231;28;20304;-77
2022/11/14 11:32:56;;;;;;;2.35;0.50;;;23.00;99.90;;;;;;5014298;28;20578;-80
2022/11/14 11:35:27;;;;;;;1.67;0.30;;;22.90;99.90;;;;;;5011615;28;20194;-77
2022/11/14 11:38:05;;;;;;;0.40;0.40;;;22.90;99.90;;;;;;4994664;28;20654;-80
2022/11/14 11:40:35;;;;;;;1.35;0.38;;;22.90;99.10;;;;;;5009352;28;20225;-78
2022/11/14 11:43:12;;;;;;;0.28;0.28;;;22.80;97.60;;;;;;5003467;28;20222;-80
2022/11/14 11:45:45;;;;;;;1.35;0.30;;;22.80;96.10;;;;;;5011154;28;20198;-79
2022/11/14 11:48:20;;;;;;;1.27;0.45;;;22.70;96.30;;;;;;5000566;28;20210;-79
2022/11/14 11:50:51;;;;;;;0.52;0.25;;;22.70;95.80;;;;;;5013485;28;20204;-79
2022/11/14 11:53:29;;;;;;;1.55;0.38;;;22.60;95.70;;;;;;5028539;28;20236;-80
2022/11/14 11:56:13;;;;;;;0.82;0.20;;;22.50;96.60;;;;;;5008161;28;20389;-78
2022/11/14 11:58:48;;;;;;;1.23;0.20;;;22.50;97.30;;;;;;5002753;28;20330;-78
2022/11/14 12:01:19;;;;;;;0.50;0.22;;;22.60;97.10;;;;;;5008631;28;20217;-78
2022/11/14 12:03:52;;;;;;;0.52;0.30;;;22.50;97.10;;;;;;5012640;28;20208;-78
2022/11/14 12:06:26;;;;;;;0.30;0.30;;;22.50;97.20;;;;;;5010009;28;20224;-79
2022/11/14 12:09:11;;;;;;;0.73;0.30;;;22.50;97.70;;;;;;5004103;28;20210;-79
2022/11/14 12:11:46;;;;;;;0.20;0.20;;;22.50;98.60;;;;;;5003288;28;20241;-79
2022/11/14 12:14:57;;;;;;;1.10;0.30;;;22.50;99.00;;;;;;5008383;28;20236;-77
2022/11/14 12:17:56;;;;;;;0.22;0.20;;;22.50;98.60;;;;;;4972979;28;20285;-78
2022/11/14 12:20:47;;;;;;;0.98;0.30;;;22.40;98.70;;;;;;5005523;28;20200;-77
2022/11/14 12:23:58;;;;;;;0.10;0.10;;;22.40;99.50;;;;;;5014877;28;20194;-79
2022/11/14 12:26:46;;;;;;;0.43;0.20;;;22.50;99.90;;;;;;5011819;28;20228;-78
2022/11/14 12:29:37;;;;;;;0.47;0.28;;;22.40;99.90;;;;;;5016156;28;20198;-78
2022/11/14 12:32:14;;;;;;;0.25;0.20;;;22.40;99.90;;;;;;5012272;28;20281;-79
2022/11/14 12:34:48;;;;;;;0.55;0.20;;;22.30;99.90;;;;;;5014875;28;20194;-78
2022/11/14 12:37:23;;;;;;;0.20;0.15;;;22.20;99.90;;;;;;5012200;28;20198;-78
2022/11/14 12:40:01;;;;;;;0.20;0.10;;;22.20;99.90;;;;;;5011060;28;20198;-79
2022/11/14 12:42:35;;;;;;;0.52;0.20;;;22.20;99.90;;;;;;5059494;23;20232;-79
2022/11/14 12:45:27;;;;;;;0.20;0.20;;;22.10;99.90;;;;;;5069663;28;20195;-79
2022/11/14 12:48:23;;;;;;;0.20;0.20;;;22.10;99.90;;;;;;5067696;28;20206;-79
2022/11/14 12:50:54;;;;;;;0.38;0.20;;;22.10;99.90;;;;;;5072030;28;20200;-79
2022/11/14 12:53:43;;;;;;;0.20;0.10;;;22.10;99.90;;;;;;5070057;28;20232;-78
2022/11/14 12:56:49;;;;;;;0.20;0.20;;;22.00;99.90;;;;;;5056797;28;20702;-77
2022/11/14 12:59:34;;;;;;;0.20;0.20;;;22.00;99.90;;;;;;5062738;28;20686;-79
2022/11/14 13:02:30;;;;;;;0.20;0.10;;;22.10;99.90;;;;;;5066743;28;20260;-77
2022/11/14 13:05:35;;;;;;;0.10;0.10;;;22.10;99.90;;;;;;5059495;28;20206;-79
2022/11/14 13:08:20;;;;;;;0.55;0.20;;;22.10;99.90;;;;;;5060385;28;20192;-78
2022/11/14 13:10:51;;;;;;;0.10;0.10;;;22.00;99.90;;;;;;5060881;28;20219;-79
2022/11/14 13:22:37;;;;;;;0.82;0.20;;;22.10;99.90;;;;;;5069665;28;20242;-79
2022/11/14 13:25:24;;;;;;;0.15;0.10;;;22.00;99.90;;;;;;5061614;28;20201;-78
2022/11/14 13:27:56;;;;;;;0.30;0.20;;;22.00;99.90;;;;;;5057790;28;20196;-80
2022/11/14 13:30:58;;;;;;;0.80;0.20;;;21.90;99.90;;;;;;5055890;28;20614;-80
2022/11/14 13:33:47;;;;;;;0.38;0.15;;;21.90;99.90;;;;;;5076654;28;20226;-79
2022/11/14 13:36:28;;;;;;;0.20;0.20;;;21.90;99.90;;;;;;5078181;28;20244;-80
2022/11/14 13:39:22;;;;;;;0.28;0.13;;;21.80;99.90;;;;;;5063390;28;20218;-79
2022/11/14 13:42:10;;;;;;;0.10;0.10;;;21.80;99.90;;;;;;5076760;28;20191;-79